Startpagina
METAR-TAF:

METAR-TAF

Vliegvelden :

Luchthaven Ambouli Internationaal

Djibouti, Djibouti

breedte: 11-33N, lengte: 043-10E, hoogte: 49 m

Actueel weer

Dit bericht is 1 uur en het 45 minuten geleden gemaakt, om 10:00 UTC
Wind 15 kt uit het oosten
Temperatuur 32°C
Vochtigheid 63%
Druk 1010 hPa
Zicht 10 km of meer
Weinig wolken op 2300 ft

METAR: HDAM 251000Z 08015KT 9999 FEW023 32/24 Q1010

Tijdstip: 14:45 (11:45 UTC)

Verwachting

Dit bericht is 45 minuten geleden gemaakt, om 11:00 UTC
Verwachting geldig van 25 om 12 UTC tot 26 om 12 UTC
Wind 10 kt uit het oosten
Zicht 10 km of meer
Verspreide wolken op 2000 ft
Verspreide wolken op 2300 ft
Wijzigt naar
van 25 om 15 UTC tot 25 om 18 UTC
Wind 3 kt uit variabele richting
Verspreide wolken op 2000 ft
Wijzigt naar
van 26 om 00 UTC tot 26 om 06 UTC
Wind 10 kt uit het oosten
Verspreide wolken op 2000 ft
Verspreide wolken op 3000 ft

TAF: HDAM 251100Z 2512/2612 10010KT 9999 SCT020 SCT023 BECMG 2515/2518 VRB03KT SCT020 BECMG 2600/2606 08010KT SCT020 SCT030

Waarnemingen en weersverwachtingen van meer dan 4000 vliegvelden (METAR en TAF).

De beschikbare stations zijn de gele en rode punten op de kaart.

Ga met uw muis naar het station om de naam te zien.

Klik dan om waarnemingen en weersverwachtingen te zien.

kaart wijzigen: klik op de groene knoppen met een zwart kruis om in te zoomen, op de groene knop met een streepje om uit te zoomen of op de groene pijlen voor aangrenzende kaarten.


METAR-TAF: